Time;durP1;ratioP1;P1;durP2;ratioP2;P2;SDS_P1;SDS_P2;PMS_P1;PMS_P2;Temp;Humidity;BMP_temperature;BMP_pressure;BME280_temperature;BME280_humidity;BME280_pressure;Samples;Min_cycle;Max_cycle;Signal;HPM_P1;HPM_P2
2023/07/17 00:00:58;;;;;;;10.65;6.55;;;25.10;99.90;;;;;;5088817;28;20028;-70
2023/07/17 00:03:24;;;;;;;12.05;5.85;;;24.90;99.90;;;;;;5090358;28;20031;-70
2023/07/17 00:05:51;;;;;;;12.23;6.57;;;24.90;99.90;;;;;;5094483;28;20081;-70
2023/07/17 00:08:17;;;;;;;9.88;5.65;;;24.90;99.90;;;;;;5092333;28;20024;-70
2023/07/17 00:10:44;;;;;;;9.68;6.50;;;24.90;99.90;;;;;;5093093;28;20034;-70
2023/07/17 00:13:09;;;;;;;10.13;6.43;;;24.90;99.90;;;;;;5090205;28;20024;-70
2023/07/17 00:15:35;;;;;;;16.17;6.40;;;24.90;99.90;;;;;;5092166;28;20363;-70
2023/07/17 00:18:01;;;;;;;13.55;6.82;;;24.90;99.90;;;;;;5089542;28;20031;-71
2023/07/17 00:20:26;;;;;;;16.00;7.22;;;24.80;99.90;;;;;;5088763;28;20040;-70
2023/07/17 00:22:52;;;;;;;12.02;6.57;;;24.70;99.90;;;;;;5088865;28;20028;-71
2023/07/17 00:25:18;;;;;;;14.65;6.15;;;24.80;99.90;;;;;;5090928;28;20493;-71
2023/07/17 00:27:44;;;;;;;11.32;6.60;;;24.70;99.90;;;;;;5088722;28;20118;-71
2023/07/17 00:30:09;;;;;;;10.65;6.72;;;24.80;99.90;;;;;;5096549;28;20470;-71
2023/07/17 00:32:35;;;;;;;10.43;6.13;;;24.80;99.90;;;;;;5089296;28;20032;-70
2023/07/17 00:35:01;;;;;;;11.32;6.30;;;24.70;99.90;;;;;;5087898;28;20028;-70
2023/07/17 00:37:26;;;;;;;11.25;6.70;;;24.60;99.90;;;;;;5089619;28;20155;-70
2023/07/17 00:39:52;;;;;;;10.25;6.55;;;24.50;99.90;;;;;;5090095;28;20537;-70
2023/07/17 00:42:18;;;;;;;13.63;6.68;;;24.60;99.90;;;;;;5089422;28;20032;-70
2023/07/17 00:44:43;;;;;;;14.95;6.03;;;24.60;99.90;;;;;;5091389;28;20070;-70
2023/07/17 00:47:10;;;;;;;10.50;6.82;;;24.60;99.90;;;;;;5094122;28;20039;-70
2023/07/17 00:49:36;;;;;;;16.70;7.28;;;24.50;99.90;;;;;;5091065;28;20051;-70
2023/07/17 00:52:04;;;;;;;12.05;6.68;;;24.40;99.90;;;;;;5089329;28;20107;-70
2023/07/17 00:54:32;;;;;;;11.32;7.05;;;24.40;99.90;;;;;;5090497;28;20115;-71
2023/07/17 00:56:59;;;;;;;12.27;6.63;;;24.50;99.90;;;;;;5087496;28;20385;-70
2023/07/17 00:59:26;;;;;;;12.18;7.38;;;24.50;99.90;;;;;;5088890;28;20055;-70
2023/07/17 01:01:53;;;;;;;12.07;6.80;;;24.50;99.90;;;;;;5091725;28;20046;-70
2023/07/17 01:04:18;;;;;;;12.45;7.25;;;24.40;99.90;;;;;;5089293;28;20050;-70
2023/07/17 01:06:44;;;;;;;15.32;6.45;;;24.40;99.90;;;;;;5089957;28;20031;-70
2023/07/17 01:09:11;;;;;;;10.18;6.22;;;24.50;99.90;;;;;;5089782;28;20032;-70
2023/07/17 01:11:37;;;;;;;12.52;7.40;;;24.40;99.90;;;;;;5089686;28;20035;-70
2023/07/17 01:14:02;;;;;;;10.38;6.57;;;24.30;99.90;;;;;;5090707;28;20382;-70
2023/07/17 01:16:28;;;;;;;13.80;7.45;;;24.30;99.90;;;;;;5090551;28;20389;-70
2023/07/17 01:18:54;;;;;;;10.70;6.63;;;24.40;99.90;;;;;;5087706;28;20024;-70
2023/07/17 01:21:25;;;;;;;11.90;6.53;;;24.20;99.90;;;;;;5092039;28;20110;-70
2023/07/17 01:23:52;;;;;;;9.90;6.57;;;24.30;99.90;;;;;;5087836;28;20028;-70
2023/07/17 01:26:18;;;;;;;18.90;7.20;;;24.20;99.90;;;;;;5089618;28;20031;-70
2023/07/17 01:28:45;;;;;;;14.07;7.32;;;24.20;99.90;;;;;;5093969;28;20438;-70
2023/07/17 01:31:12;;;;;;;11.30;6.90;;;24.20;99.90;;;;;;5096509;28;20099;-70
2023/07/17 01:33:38;;;;;;;12.63;7.15;;;24.30;99.90;;;;;;5091377;28;20024;-70
2023/07/17 01:36:05;;;;;;;15.82;6.72;;;24.30;99.90;;;;;;5092603;28;20024;-70
2023/07/17 01:38:31;;;;;;;13.38;7.05;;;24.30;99.90;;;;;;5094856;28;20028;-70
2023/07/17 01:40:57;;;;;;;13.52;7.10;;;24.30;99.90;;;;;;5086810;28;20035;-71
2023/07/17 01:43:22;;;;;;;13.05;7.38;;;24.30;99.90;;;;;;5089928;28;20035;-70
2023/07/17 01:45:48;;;;;;;12.10;7.40;;;24.20;99.90;;;;;;5086255;28;20032;-70
2023/07/17 01:48:17;;;;;;;13.02;6.82;;;24.20;99.90;;;;;;5089552;28;20032;-70
2023/07/17 01:50:45;;;;;;;10.23;7.10;;;24.20;99.90;;;;;;5090152;28;20031;-70
2023/07/17 01:53:12;;;;;;;8.27;6.45;;;24.20;99.90;;;;;;5089552;28;20481;-70
2023/07/17 01:55:37;;;;;;;9.85;6.15;;;24.10;99.90;;;;;;5094145;28;20035;-70
2023/07/17 01:58:03;;;;;;;12.15;7.10;;;24.00;99.90;;;;;;5091502;28;20521;-70
2023/07/17 02:00:29;;;;;;;11.25;6.60;;;23.90;99.90;;;;;;5088054;28;20032;-70
2023/07/17 02:02:54;;;;;;;11.60;6.70;;;23.80;99.90;;;;;;5088177;28;20123;-70
2023/07/17 02:05:20;;;;;;;12.48;6.45;;;23.70;99.90;;;;;;5087658;28;20109;-70
2023/07/17 02:07:46;;;;;;;15.70;7.07;;;23.70;99.90;;;;;;5088503;28;20071;-70
2023/07/17 02:10:12;;;;;;;9.13;6.53;;;23.60;99.90;;;;;;5087298;28;20099;-70
2023/07/17 02:12:38;;;;;;;11.63;7.32;;;23.80;99.90;;;;;;5088112;28;20029;-70
2023/07/17 02:15:06;;;;;;;10.93;6.57;;;23.80;99.90;;;;;;5092446;28;20028;-70
2023/07/17 02:17:32;;;;;;;14.05;6.97;;;23.80;99.90;;;;;;5090643;28;20065;-71
2023/07/17 02:19:58;;;;;;;10.82;7.28;;;23.70;99.90;;;;;;5090669;28;20032;-70
2023/07/17 02:22:24;;;;;;;10.85;7.60;;;23.70;99.90;;;;;;5090725;28;20020;-70
2023/07/17 02:24:50;;;;;;;9.27;6.93;;;23.70;99.90;;;;;;5090440;28;20024;-70
2023/07/17 02:27:16;;;;;;;10.48;6.82;;;23.70;99.90;;;;;;5099779;28;20038;-70
2023/07/17 02:29:41;;;;;;;9.35;6.60;;;23.60;99.90;;;;;;5096126;28;20046;-70
2023/07/17 02:32:07;;;;;;;11.70;7.30;;;23.60;99.90;;;;;;5090410;28;20474;-70
2023/07/17 02:34:33;;;;;;;12.48;7.63;;;23.80;99.90;;;;;;5087415;28;20028;-70
2023/07/17 02:36:58;;;;;;;12.07;6.85;;;23.80;99.90;;;;;;5092098;28;20028;-70
2023/07/17 02:39:24;;;;;;;13.38;7.68;;;23.80;99.90;;;;;;5092323;28;20032;-70
2023/07/17 02:41:50;;;;;;;12.68;7.80;;;23.70;99.90;;;;;;5091369;27;20035;-70
2023/07/17 02:44:15;;;;;;;8.98;6.57;;;23.60;99.90;;;;;;5090174;28;20020;-71
2023/07/17 02:46:41;;;;;;;11.57;6.30;;;23.50;99.90;;;;;;5091380;28;20496;-70
2023/07/17 02:49:09;;;;;;;10.85;7.53;;;23.60;99.90;;;;;;5095096;28;20036;-70
2023/07/17 02:51:34;;;;;;;15.73;7.03;;;23.60;99.90;;;;;;5092881;28;20019;-70
2023/07/17 02:54:00;;;;;;;10.95;5.82;;;23.60;99.90;;;;;;5091826;28;20162;-70
2023/07/17 02:56:26;;;;;;;11.30;6.90;;;23.80;99.90;;;;;;5090235;27;20484;-70
2023/07/17 02:58:54;;;;;;;9.02;6.60;;;23.70;99.90;;;;;;5088221;28;20054;-70
2023/07/17 03:01:20;;;;;;;19.40;6.72;;;23.70;99.90;;;;;;5088324;28;20032;-70
2023/07/17 03:03:48;;;;;;;12.27;7.07;;;23.60;99.90;;;;;;5090567;28;20438;-70
2023/07/17 03:06:14;;;;;;;14.88;8.15;;;23.50;99.90;;;;;;5091406;28;20024;-70
2023/07/17 03:08:39;;;;;;;13.43;7.90;;;23.50;99.90;;;;;;5083398;28;20031;-70
2023/07/17 03:11:05;;;;;;;10.93;6.32;;;23.50;99.90;;;;;;5096658;28;20028;-70
2023/07/17 03:13:31;;;;;;;13.10;7.78;;;23.40;99.90;;;;;;5086776;28;20027;-70
2023/07/17 03:15:58;;;;;;;16.25;8.13;;;23.40;99.90;;;;;;5086766;27;20044;-70
2023/07/17 03:18:25;;;;;;;11.18;6.32;;;23.30;99.90;;;;;;5086657;28;20170;-70
2023/07/17 03:20:51;;;;;;;13.75;7.93;;;23.20;99.90;;;;;;5082174;28;20601;-70
2023/07/17 03:23:17;;;;;;;11.05;6.60;;;23.30;99.90;;;;;;5084268;28;20067;-70
2023/07/17 03:25:43;;;;;;;11.55;7.60;;;23.20;99.90;;;;;;5093093;28;20043;-70
2023/07/17 03:28:09;;;;;;;11.00;7.10;;;23.20;99.90;;;;;;5087249;27;20043;-70
2023/07/17 03:30:35;;;;;;;11.43;6.85;;;23.10;99.90;;;;;;5085456;28;20032;-70
2023/07/17 03:33:02;;;;;;;12.48;6.55;;;23.10;99.90;;;;;;5087993;28;20031;-70
2023/07/17 03:35:28;;;;;;;10.77;7.82;;;23.10;99.90;;;;;;5085679;28;20028;-70
2023/07/17 03:37:54;;;;;;;13.50;7.72;;;23.00;99.90;;;;;;5091256;28;20031;-70
2023/07/17 03:40:19;;;;;;;15.40;8.55;;;22.90;99.90;;;;;;5088985;28;20107;-70
2023/07/17 03:42:45;;;;;;;14.73;7.65;;;23.00;99.90;;;;;;5091415;28;20032;-70
2023/07/17 03:45:11;;;;;;;10.48;7.03;;;23.00;99.90;;;;;;5086591;28;20036;-70
2023/07/17 03:47:36;;;;;;;13.90;8.00;;;23.00;99.90;;;;;;5087764;28;20048;-70
2023/07/17 03:50:02;;;;;;;15.20;8.23;;;23.00;99.90;;;;;;5084641;28;20036;-70
2023/07/17 03:52:28;;;;;;;14.52;7.13;;;23.10;99.90;;;;;;5085317;28;20031;-70
2023/07/17 03:54:54;;;;;;;11.65;7.97;;;23.20;99.90;;;;;;5086149;28;20451;-70
2023/07/17 03:57:20;;;;;;;11.30;8.02;;;23.20;99.90;;;;;;5086271;28;20087;-70
2023/07/17 03:59:56;;;;;;;12.43;7.72;;;23.30;99.90;;;;;;5086929;28;20634;-70
2023/07/17 04:02:22;;;;;;;11.73;7.70;;;23.20;99.90;;;;;;5084055;28;20031;-70
2023/07/17 04:04:50;;;;;;;12.38;8.10;;;23.10;99.90;;;;;;5085392;28;20074;-70
2023/07/17 04:07:16;;;;;;;12.38;7.85;;;23.20;99.90;;;;;;5081911;28;20513;-70
2023/07/17 04:09:41;;;;;;;11.32;7.70;;;23.10;99.90;;;;;;5084720;28;20038;-70
2023/07/17 04:12:08;;;;;;;13.52;7.68;;;23.10;99.90;;;;;;5082180;28;20028;-70
2023/07/17 04:14:34;;;;;;;9.57;7.10;;;23.10;99.90;;;;;;5082281;28;20028;-70
2023/07/17 04:17:00;;;;;;;13.18;7.63;;;23.10;99.90;;;;;;5083241;28;20429;-70
2023/07/17 04:19:29;;;;;;;11.80;7.53;;;23.20;99.90;;;;;;5085001;28;20058;-70
2023/07/17 04:21:55;;;;;;;13.70;8.32;;;23.30;99.90;;;;;;5088871;28;20039;-70
2023/07/17 04:24:23;;;;;;;16.23;8.00;;;23.20;99.90;;;;;;5086281;28;20050;-70
2023/07/17 04:26:50;;;;;;;11.20;7.25;;;23.10;99.90;;;;;;5088576;28;20397;-70
2023/07/17 04:29:16;;;;;;;10.70;6.97;;;22.90;99.90;;;;;;5082920;28;20028;-70
2023/07/17 04:31:42;;;;;;;13.60;7.65;;;22.90;99.90;;;;;;5085964;28;20092;-70
2023/07/17 04:34:08;;;;;;;11.00;7.63;;;23.10;99.90;;;;;;5092463;28;20036;-70
2023/07/17 04:36:33;;;;;;;11.55;8.00;;;22.80;99.90;;;;;;5088497;28;20032;-70
2023/07/17 04:38:59;;;;;;;12.40;7.63;;;22.80;99.90;;;;;;5089179;28;20027;-70
2023/07/17 04:41:25;;;;;;;11.80;7.25;;;22.90;99.90;;;;;;5082156;28;20031;-70
2023/07/17 04:43:51;;;;;;;11.52;7.75;;;23.00;99.90;;;;;;5086497;27;20020;-70
2023/07/17 04:46:16;;;;;;;13.52;8.07;;;23.10;99.90;;;;;;5081271;28;20028;-70
2023/07/17 04:48:42;;;;;;;12.13;7.43;;;23.20;99.90;;;;;;5082122;28;20024;-70
2023/07/17 04:51:08;;;;;;;9.75;7.25;;;23.30;99.90;;;;;;5086368;28;20111;-70
2023/07/17 04:53:34;;;;;;;11.90;7.47;;;23.50;99.90;;;;;;5081134;28;20035;-70
2023/07/17 04:55:59;;;;;;;13.32;7.85;;;23.40;99.90;;;;;;5084677;28;20040;-70
2023/07/17 04:58:27;;;;;;;12.70;7.82;;;23.40;99.90;;;;;;5090901;28;20047;-70
2023/07/17 05:00:58;;;;;;;10.63;6.88;;;23.30;99.90;;;;;;5085386;28;20473;-70
2023/07/17 05:03:24;;;;;;;16.90;7.60;;;23.40;99.90;;;;;;5084197;28;20040;-70
2023/07/17 05:05:53;;;;;;;10.90;8.15;;;23.40;99.90;;;;;;5083925;28;20035;-70
2023/07/17 05:08:19;;;;;;;14.25;8.02;;;23.50;99.90;;;;;;5093959;28;20042;-70
2023/07/17 05:10:59;;;;;;;12.10;8.05;;;23.40;99.90;;;;;;5086386;28;20027;-70
2023/07/17 05:13:26;;;;;;;13.13;9.15;;;23.40;99.90;;;;;;5083710;28;20027;-70
2023/07/17 05:15:52;;;;;;;10.20;7.65;;;23.40;99.90;;;;;;5084011;28;20111;-70
2023/07/17 05:18:18;;;;;;;9.98;7.78;;;23.50;99.90;;;;;;5090654;28;20474;-70
2023/07/17 05:20:44;;;;;;;18.98;7.57;;;23.50;99.90;;;;;;5084096;28;20058;-70
2023/07/17 05:23:11;;;;;;;12.90;8.30;;;23.50;99.90;;;;;;5087902;28;20044;-70
2023/07/17 05:25:36;;;;;;;14.55;8.18;;;23.60;99.90;;;;;;5085169;28;20031;-71
2023/07/17 05:28:04;;;;;;;15.80;8.52;;;23.60;99.90;;;;;;5085966;28;20475;-70
2023/07/17 05:30:34;;;;;;;11.93;7.55;;;23.60;99.90;;;;;;5081029;28;20028;-71
2023/07/17 05:33:01;;;;;;;16.88;8.18;;;23.60;99.90;;;;;;5083297;28;20032;-71
2023/07/17 05:35:27;;;;;;;13.18;7.63;;;23.70;99.90;;;;;;5080956;28;20090;-70
2023/07/17 05:37:56;;;;;;;16.02;8.20;;;23.70;99.90;;;;;;5084488;28;20032;-70
2023/07/17 05:40:22;;;;;;;12.70;6.90;;;23.70;99.90;;;;;;5087605;28;20044;-69
2023/07/17 05:42:47;;;;;;;16.10;8.05;;;23.70;99.90;;;;;;5086227;28;20485;-71
2023/07/17 05:45:13;;;;;;;12.50;7.68;;;23.70;99.90;;;;;;5084172;28;20482;-71
2023/07/17 05:47:41;;;;;;;11.88;7.85;;;23.70;99.90;;;;;;5100958;28;20078;-71
2023/07/17 05:50:09;;;;;;;17.25;8.63;;;23.80;99.90;;;;;;5083351;28;20131;-70
2023/07/17 05:52:35;;;;;;;13.05;8.65;;;23.90;99.90;;;;;;5084841;28;20024;-70
2023/07/17 05:55:01;;;;;;;12.82;8.38;;;23.90;99.90;;;;;;5089700;28;20085;-70
2023/07/17 05:57:26;;;;;;;11.90;7.53;;;23.90;99.90;;;;;;5089000;28;20044;-70
2023/07/17 05:59:52;;;;;;;12.40;7.97;;;24.00;99.90;;;;;;5082764;28;20452;-70
2023/07/17 06:02:18;;;;;;;12.70;8.40;;;24.00;99.90;;;;;;5095805;28;20400;-70
2023/07/17 06:04:45;;;;;;;17.33;7.97;;;24.00;99.90;;;;;;5082241;28;20032;-70
2023/07/17 06:07:10;;;;;;;10.45;7.88;;;24.10;99.90;;;;;;5086695;28;20031;-71
2023/07/17 06:09:37;;;;;;;12.45;7.65;;;24.10;99.90;;;;;;5081882;28;20028;-70
2023/07/17 06:12:02;;;;;;;13.15;8.18;;;24.10;99.90;;;;;;5090048;28;20023;-70
2023/07/17 06:14:28;;;;;;;14.98;7.82;;;24.20;99.90;;;;;;5087044;27;20069;-70
2023/07/17 06:16:54;;;;;;;18.05;8.60;;;24.20;99.90;;;;;;5087310;28;20028;-70
2023/07/17 06:19:19;;;;;;;13.10;8.05;;;24.20;99.90;;;;;;5093008;28;20031;-70
2023/07/17 06:21:45;;;;;;;14.38;8.68;;;24.20;99.90;;;;;;5089020;27;20040;-70
2023/07/17 06:24:11;;;;;;;15.60;8.25;;;24.30;99.90;;;;;;5089886;28;20107;-70
2023/07/17 06:26:37;;;;;;;13.15;8.45;;;24.40;99.90;;;;;;5089415;28;20028;-69
2023/07/17 06:29:05;;;;;;;13.13;8.23;;;24.30;99.90;;;;;;5084616;28;20944;-70
2023/07/17 06:31:31;;;;;;;11.85;8.52;;;24.30;99.90;;;;;;5090943;28;20542;-70
2023/07/17 06:33:56;;;;;;;13.65;8.63;;;24.40;99.90;;;;;;5085396;28;20024;-70
2023/07/17 06:36:22;;;;;;;15.02;8.05;;;24.50;99.90;;;;;;5086969;28;20027;-70
2023/07/17 06:38:48;;;;;;;11.38;9.02;;;24.50;99.90;;;;;;5088654;28;20038;-70
2023/07/17 06:41:14;;;;;;;14.73;8.13;;;24.60;99.90;;;;;;5085195;28;20127;-70
2023/07/17 06:43:40;;;;;;;18.13;8.15;;;24.60;99.90;;;;;;5087131;28;20034;-70
2023/07/17 06:46:05;;;;;;;11.13;7.60;;;24.70;99.90;;;;;;5094192;28;20043;-70
2023/07/17 06:48:31;;;;;;;12.02;8.90;;;24.70;99.90;;;;;;5090378;28;20481;-70
2023/07/17 06:50:57;;;;;;;13.07;9.52;;;24.80;99.90;;;;;;5092435;28;20065;-70
2023/07/17 06:53:22;;;;;;;14.02;8.27;;;24.90;99.90;;;;;;5087559;28;20100;-70
2023/07/17 06:55:58;;;;;;;12.82;8.88;;;24.90;99.90;;;;;;5095448;28;20072;-70
2023/07/17 06:58:24;;;;;;;13.73;8.35;;;25.00;99.90;;;;;;5086269;28;20443;-70
2023/07/17 07:01:00;;;;;;;16.05;8.45;;;25.00;99.90;;;;;;5087512;28;20036;-70
2023/07/17 07:03:27;;;;;;;13.18;8.30;;;25.20;99.90;;;;;;5089773;28;20059;-70
2023/07/17 07:05:56;;;;;;;14.88;8.88;;;25.30;99.90;;;;;;5088848;28;20059;-70
2023/07/17 07:08:23;;;;;;;14.32;8.82;;;25.60;99.90;;;;;;5089080;28;20028;-70
2023/07/17 07:10:52;;;;;;;12.68;8.70;;;25.80;99.90;;;;;;5086708;28;20039;-70
2023/07/17 07:13:20;;;;;;;13.23;9.25;;;25.90;99.90;;;;;;5087808;28;20034;-70
2023/07/17 07:15:45;;;;;;;13.30;8.20;;;26.00;99.90;;;;;;5085838;28;20032;-70
2023/07/17 07:18:11;;;;;;;12.23;7.53;;;26.30;99.90;;;;;;5089440;28;20046;-70
2023/07/17 07:20:37;;;;;;;13.20;8.02;;;26.60;99.90;;;;;;5092369;28;20069;-71
2023/07/17 07:23:03;;;;;;;14.90;8.13;;;26.80;99.90;;;;;;5086466;28;20034;-71
2023/07/17 07:25:29;;;;;;;11.93;8.10;;;27.10;99.90;;;;;;5087806;28;20027;-71
2023/07/17 07:27:55;;;;;;;12.82;8.70;;;27.20;99.90;;;;;;5093898;28;20059;-72
2023/07/17 07:30:21;;;;;;;10.38;7.68;;;27.40;99.90;;;;;;5099937;28;20051;-72
2023/07/17 07:32:47;;;;;;;14.57;7.95;;;28.00;99.90;;;;;;5087325;28;20024;-72
2023/07/17 07:35:13;;;;;;;14.13;7.82;;;28.50;99.90;;;;;;5090370;28;20032;-72
2023/07/17 07:37:42;;;;;;;17.40;8.43;;;29.20;99.90;;;;;;5087428;28;20020;-71
2023/07/17 07:40:12;;;;;;;13.57;6.90;;;30.30;99.90;;;;;;5089507;28;20043;-71
2023/07/17 07:42:41;;;;;;;12.45;7.82;;;31.30;98.90;;;;;;5084772;28;20035;-71
2023/07/17 07:45:08;;;;;;;12.32;6.70;;;31.70;98.40;;;;;;5085856;28;20098;-71
2023/07/17 07:47:34;;;;;;;12.52;7.25;;;32.10;98.20;;;;;;5093392;28;20042;-71
2023/07/17 07:50:00;;;;;;;16.40;7.90;;;31.90;97.60;;;;;;5090303;28;20040;-71
2023/07/17 07:52:26;;;;;;;10.95;7.63;;;32.10;96.80;;;;;;5093824;28;20028;-72
2023/07/17 07:54:52;;;;;;;11.70;7.45;;;32.10;96.70;;;;;;5091658;28;20109;-71
2023/07/17 07:57:18;;;;;;;12.50;7.55;;;32.20;96.80;;;;;;5090695;27;20036;-72
2023/07/17 07:59:43;;;;;;;12.10;7.10;;;32.40;96.70;;;;;;5086645;28;20372;-71
2023/07/17 08:02:10;;;;;;;13.43;7.35;;;32.10;96.90;;;;;;5085909;28;20028;-71
2023/07/17 08:04:36;;;;;;;12.40;7.25;;;31.80;96.90;;;;;;5094298;28;20030;-72
2023/07/17 08:07:02;;;;;;;12.00;7.35;;;31.60;97.00;;;;;;5090364;28;20061;-71
2023/07/17 08:09:29;;;;;;;14.65;7.75;;;31.30;97.50;;;;;;5088284;28;20047;-71
2023/07/17 08:11:54;;;;;;;14.85;7.85;;;30.80;97.60;;;;;;5083624;28;20050;-71
2023/07/17 08:14:23;;;;;;;9.95;7.38;;;30.30;98.10;;;;;;5083938;28;20028;-71
2023/07/17 08:16:49;;;;;;;13.70;7.00;;;30.00;98.00;;;;;;5085829;28;20032;-71
2023/07/17 08:19:16;;;;;;;10.48;6.93;;;30.00;98.70;;;;;;5084164;28;20077;-71
2023/07/17 08:21:42;;;;;;;12.93;7.20;;;29.90;98.40;;;;;;5088408;28;20110;-71
2023/07/17 08:24:09;;;;;;;9.95;6.85;;;29.90;98.40;;;;;;5083944;28;20097;-71
2023/07/17 08:26:35;;;;;;;13.27;7.25;;;29.50;97.90;;;;;;5088016;28;20027;-71
2023/07/17 08:29:02;;;;;;;16.50;7.68;;;29.70;98.20;;;;;;5086493;28;20064;-71
2023/07/17 08:31:28;;;;;;;10.63;7.45;;;29.40;98.20;;;;;;5095563;28;20051;-71
2023/07/17 08:33:54;;;;;;;12.70;7.82;;;29.20;97.90;;;;;;5089591;28;20512;-71
2023/07/17 08:36:19;;;;;;;18.52;7.85;;;29.40;98.70;;;;;;5084576;28;20028;-71
2023/07/17 08:38:46;;;;;;;13.73;7.95;;;29.40;98.80;;;;;;5083185;28;20440;-71
2023/07/17 08:41:13;;;;;;;12.15;6.85;;;29.40;98.40;;;;;;5088947;28;20489;-72
2023/07/17 08:43:39;;;;;;;12.00;7.85;;;29.40;98.40;;;;;;5084050;28;20123;-71
2023/07/17 08:46:05;;;;;;;13.40;7.00;;;29.60;98.60;;;;;;5085419;28;20142;-72
2023/07/17 08:48:31;;;;;;;16.52;7.00;;;29.50;98.60;;;;;;5085458;28;20123;-72
2023/07/17 08:50:58;;;;;;;14.32;7.05;;;29.50;99.00;;;;;;5092874;28;20027;-72
2023/07/17 08:53:24;;;;;;;12.38;7.65;;;29.60;97.70;;;;;;5088333;28;20032;-71
2023/07/17 08:55:54;;;;;;;11.57;7.25;;;29.60;98.20;;;;;;5093380;27;20034;-71
2023/07/17 08:58:20;;;;;;;12.95;8.18;;;29.70;98.50;;;;;;5089991;28;20044;-71
2023/07/17 09:00:48;;;;;;;14.57;7.45;;;29.30;98.10;;;;;;5085385;28;20070;-71
2023/07/17 09:03:15;;;;;;;11.32;7.15;;;29.60;98.60;;;;;;5084550;28;20072;-71
2023/07/17 09:05:43;;;;;;;12.90;7.32;;;29.70;99.10;;;;;;5088100;28;20031;-71
2023/07/17 09:08:10;;;;;;;18.55;7.70;;;29.80;98.90;;;;;;5083241;28;20439;-71
2023/07/17 09:10:36;;;;;;;13.10;7.63;;;30.00;98.80;;;;;;5080067;28;20501;-71
2023/07/17 09:13:04;;;;;;;14.07;6.72;;;30.10;97.80;;;;;;5081551;28;20035;-71
2023/07/17 09:15:33;;;;;;;10.95;7.05;;;29.90;98.20;;;;;;5085012;28;20042;-71
2023/07/17 09:17:59;;;;;;;10.60;6.55;;;30.00;97.70;;;;;;5080131;28;20397;-71
2023/07/17 09:20:26;;;;;;;12.40;7.18;;;30.10;97.10;;;;;;5083877;28;20084;-72
2023/07/17 09:22:58;;;;;;;16.85;8.07;;;30.10;97.30;;;;;;5092494;28;20036;-72
2023/07/17 09:25:28;;;;;;;14.17;8.17;;;30.10;97.80;;;;;;5081779;28;20031;-71
2023/07/17 09:27:53;;;;;;;14.13;8.48;;;30.40;97.60;;;;;;5080636;28;20063;-72
2023/07/17 09:30:21;;;;;;;10.75;7.35;;;30.60;98.30;;;;;;5080648;28;20028;-72
2023/07/17 09:32:48;;;;;;;13.90;7.15;;;30.50;97.40;;;;;;5079633;28;20030;-71
2023/07/17 09:35:14;;;;;;;13.38;8.20;;;30.60;97.70;;;;;;5079474;28;20124;-72
2023/07/17 09:37:42;;;;;;;12.57;6.78;;;30.70;98.10;;;;;;5081178;28;20028;-72
2023/07/17 09:40:11;;;;;;;12.38;7.35;;;30.80;97.00;;;;;;5087920;28;20542;-71
2023/07/17 09:42:38;;;;;;;17.50;7.93;;;30.20;97.50;;;;;;5079702;28;20085;-73
2023/07/17 09:45:04;;;;;;;16.02;8.68;;;30.40;97.90;;;;;;5083074;28;20032;-71
2023/07/17 09:47:33;;;;;;;13.50;6.75;;;30.70;98.40;;;;;;5089498;28;20024;-71
2023/07/17 09:50:01;;;;;;;11.65;7.28;;;31.00;97.50;;;;;;5085898;28;20123;-72
2023/07/17 09:52:31;;;;;;;10.80;6.63;;;31.00;97.20;;;;;;5095533;28;20024;-71
2023/07/17 09:55:00;;;;;;;11.05;7.43;;;31.10;97.20;;;;;;5088212;28;20035;-71
2023/07/17 09:57:42;;;;;;;17.50;7.57;;;31.10;97.80;;;;;;5092353;28;20086;-71
2023/07/17 10:00:11;;;;;;;11.75;7.38;;;31.30;97.40;;;;;;5091511;28;20131;-71
2023/07/17 10:02:52;;;;;;;14.15;7.75;;;31.20;97.20;;;;;;5083199;28;20031;-72
2023/07/17 10:05:18;;;;;;;12.13;7.88;;;31.20;97.70;;;;;;5084836;28;20032;-72
2023/07/17 10:07:47;;;;;;;13.15;7.47;;;31.50;97.50;;;;;;5086609;28;20038;-72
2023/07/17 10:10:13;;;;;;;11.88;7.18;;;31.50;97.00;;;;;;5087194;28;20540;-71
2023/07/17 10:12:40;;;;;;;25.77;8.88;;;31.50;97.20;;;;;;5091950;28;20055;-72
2023/07/17 10:15:07;;;;;;;14.68;7.25;;;31.60;98.00;;;;;;5086837;28;20040;-72
2023/07/17 10:17:34;;;;;;;10.77;7.05;;;31.20;97.20;;;;;;5099038;28;20019;-71
2023/07/17 10:20:08;;;;;;;9.23;6.97;;;31.30;97.90;;;;;;5086939;28;20050;-71
2023/07/17 10:22:38;;;;;;;15.25;6.88;;;31.40;97.50;;;;;;5088548;28;20053;-72
2023/07/17 10:25:18;;;;;;;12.07;7.55;;;31.50;98.40;;;;;;5088858;28;20024;-71
2023/07/17 10:28:01;;;;;;;10.82;7.32;;;31.90;98.00;;;;;;5085926;28;20039;-71
2023/07/17 10:30:34;;;;;;;18.85;7.60;;;31.90;97.90;;;;;;5085874;28;20039;-71
2023/07/17 10:33:19;;;;;;;13.05;8.38;;;31.60;97.40;;;;;;5086669;28;20176;-71
2023/07/17 10:35:57;;;;;;;10.30;6.68;;;31.90;98.70;;;;;;5090565;28;20401;-71
2023/07/17 10:38:30;;;;;;;9.70;6.88;;;31.70;98.10;;;;;;5088474;28;20378;-71
2023/07/17 10:41:14;;;;;;;11.50;6.93;;;31.70;98.10;;;;;;5085436;28;20100;-72
2023/07/17 10:43:51;;;;;;;12.32;7.53;;;31.70;98.00;;;;;;5086436;28;20046;-72
2023/07/17 10:46:17;;;;;;;11.60;6.85;;;31.80;98.00;;;;;;5090503;28;20019;-71
2023/07/17 10:48:43;;;;;;;12.77;7.45;;;31.80;97.60;;;;;;5089362;28;20062;-71
2023/07/17 10:51:08;;;;;;;13.15;8.13;;;31.90;98.20;;;;;;5094381;28;20208;-72
2023/07/17 10:53:34;;;;;;;12.90;7.20;;;32.00;98.00;;;;;;5093350;28;20519;-71
2023/07/17 10:56:00;;;;;;;17.45;8.00;;;32.10;98.00;;;;;;5085001;28;20115;-71
2023/07/17 10:58:25;;;;;;;13.57;7.18;;;31.80;98.40;;;;;;5089922;28;20464;-71
2023/07/17 11:00:52;;;;;;;12.77;7.05;;;32.30;98.50;;;;;;5086935;28;20097;-72
2023/07/17 11:03:22;;;;;;;12.43;6.82;;;32.20;97.90;;;;;;5093218;28;20032;-71
2023/07/17 11:05:48;;;;;;;14.98;7.82;;;32.30;98.80;;;;;;5092623;28;20055;-71
2023/07/17 11:08:14;;;;;;;12.75;6.93;;;32.20;98.50;;;;;;5091806;28;20625;-71
2023/07/17 11:10:43;;;;;;;12.50;6.88;;;32.50;98.80;;;;;;5089288;27;20021;-72
2023/07/17 11:13:09;;;;;;;19.38;8.02;;;32.70;98.00;;;;;;5087316;28;20028;-72
2023/07/17 11:15:36;;;;;;;10.80;7.13;;;32.60;97.90;;;;;;5093126;28;20130;-72
2023/07/17 11:18:04;;;;;;;11.93;7.38;;;32.00;98.30;;;;;;5084528;28;20028;-72
2023/07/17 11:20:31;;;;;;;13.55;8.02;;;32.30;99.50;;;;;;5088896;28;20031;-71
2023/07/17 11:22:57;;;;;;;11.13;7.47;;;32.60;99.50;;;;;;5085559;28;20032;-71
2023/07/17 11:25:27;;;;;;;10.70;7.00;;;32.90;99.80;;;;;;5089765;28;20114;-72
2023/07/17 11:27:56;;;;;;;11.35;7.45;;;32.90;98.70;;;;;;5086372;28;20048;-72
2023/07/17 11:30:25;;;;;;;13.07;7.50;;;32.90;99.00;;;;;;5092596;28;20043;-71
2023/07/17 11:33:00;;;;;;;10.82;7.50;;;32.90;99.10;;;;;;5087590;28;20469;-71
2023/07/17 11:35:39;;;;;;;11.30;7.45;;;33.20;98.90;;;;;;5096661;28;20036;-71
2023/07/17 11:38:06;;;;;;;13.45;7.55;;;33.00;98.10;;;;;;5085017;28;20032;-71
2023/07/17 11:40:32;;;;;;;15.80;8.48;;;32.90;98.30;;;;;;5086178;28;20036;-72
2023/07/17 11:43:03;;;;;;;15.02;7.90;;;32.80;99.50;;;;;;5094537;28;20173;-70
2023/07/17 11:45:30;;;;;;;13.80;7.68;;;32.80;98.20;;;;;;5089842;28;20016;-71
2023/07/17 11:47:57;;;;;;;10.18;7.18;;;32.90;98.70;;;;;;5094060;28;20047;-71
2023/07/17 11:50:24;;;;;;;12.40;7.20;;;32.90;98.30;;;;;;5092065;28;20122;-71
2023/07/17 11:53:05;;;;;;;22.67;8.13;;;33.00;98.10;;;;;;5091319;28;20655;-71
2023/07/17 11:55:35;;;;;;;12.27;6.93;;;33.10;98.00;;;;;;5087075;28;20621;-71
2023/07/17 11:58:11;;;;;;;12.27;7.43;;;33.10;98.20;;;;;;5093287;28;20113;-71
2023/07/17 12:00:41;;;;;;;19.95;7.43;;;33.00;98.00;;;;;;5087515;28;20119;-71
2023/07/17 12:03:06;;;;;;;10.40;7.53;;;33.00;97.10;;;;;;5088264;28;20035;-71
2023/07/17 12:05:32;;;;;;;14.13;7.30;;;33.10;97.30;;;;;;5090400;28;20030;-71
2023/07/17 12:07:58;;;;;;;15.70;7.22;;;33.40;98.40;;;;;;5091473;28;20077;-71
2023/07/17 12:10:24;;;;;;;9.63;7.25;;;33.40;97.40;;;;;;5090182;28;20024;-71
2023/07/17 12:12:49;;;;;;;13.32;7.32;;;33.20;97.90;;;;;;5086942;28;20115;-71
2023/07/17 12:15:15;;;;;;;13.73;8.18;;;33.10;97.50;;;;;;5090914;28;20134;-71
2023/07/17 12:17:41;;;;;;;12.88;8.10;;;33.30;97.60;;;;;;5089845;28;20023;-71
2023/07/17 12:20:07;;;;;;;13.45;6.90;;;33.40;97.40;;;;;;5091258;28;20031;-72
2023/07/17 12:22:33;;;;;;;10.52;7.45;;;33.40;97.70;;;;;;5098101;28;20023;-72
2023/07/17 12:24:59;;;;;;;12.07;7.63;;;33.30;97.50;;;;;;5084623;28;20041;-71
2023/07/17 12:27:24;;;;;;;14.50;8.32;;;33.20;97.40;;;;;;5088921;28;22710;-72
2023/07/17 12:32:19;;;;;;;17.08;8.45;;;33.70;97.60;;;;;;4999285;28;20633;-78
2023/07/17 12:34:46;;;;;;;16.58;7.72;;;33.50;97.20;;;;;;4986564;28;20034;-76
2023/07/17 12:37:12;;;;;;;16.98;7.85;;;33.60;97.80;;;;;;4986316;28;20039;-77
2023/07/17 12:39:37;;;;;;;12.20;7.05;;;33.70;96.70;;;;;;4984888;28;20049;-78